sensor_id;sensor_type;location;lat;lon;timestamp;P1;durP1;ratioP1;P2;durP2;ratioP2
43807;SDS011;29438;50.664;10.098;2022-07-29T00:00:44;2.97;;;1.38;;
43807;SDS011;29438;50.664;10.098;2022-07-29T00:03:10;2.55;;;1.10;;
43807;SDS011;29438;50.664;10.098;2022-07-29T00:05:38;4.35;;;1.30;;
43807;SDS011;29438;50.664;10.098;2022-07-29T00:08:04;4.00;;;1.45;;
43807;SDS011;29438;50.664;10.098;2022-07-29T00:10:30;2.65;;;1.30;;
43807;SDS011;29438;50.664;10.098;2022-07-29T00:12:55;2.97;;;1.20;;
43807;SDS011;29438;50.664;10.098;2022-07-29T00:15:21;2.97;;;1.45;;
43807;SDS011;29438;50.664;10.098;2022-07-29T00:17:46;4.80;;;1.38;;
43807;SDS011;29438;50.664;10.098;2022-07-29T00:20:12;4.53;;;1.30;;
43807;SDS011;29438;50.664;10.098;2022-07-29T00:22:38;3.25;;;1.25;;
43807;SDS011;29438;50.664;10.098;2022-07-29T00:25:04;2.97;;;1.40;;
43807;SDS011;29438;50.664;10.098;2022-07-29T00:27:30;2.80;;;1.30;;
43807;SDS011;29438;50.664;10.098;2022-07-29T00:29:55;4.88;;;1.20;;
43807;SDS011;29438;50.664;10.098;2022-07-29T00:32:21;4.35;;;1.20;;
43807;SDS011;29438;50.664;10.098;2022-07-29T00:34:46;3.03;;;1.15;;
43807;SDS011;29438;50.664;10.098;2022-07-29T00:37:30;3.42;;;1.30;;
43807;SDS011;29438;50.664;10.098;2022-07-29T00:39:56;3.97;;;1.35;;
43807;SDS011;29438;50.664;10.098;2022-07-29T00:42:21;4.45;;;1.33;;
43807;SDS011;29438;50.664;10.098;2022-07-29T00:44:47;3.38;;;1.30;;
43807;SDS011;29438;50.664;10.098;2022-07-29T00:47:12;2.80;;;1.30;;
43807;SDS011;29438;50.664;10.098;2022-07-29T00:49:39;5.07;;;1.40;;
43807;SDS011;29438;50.664;10.098;2022-07-29T00:52:06;3.60;;;1.30;;
43807;SDS011;29438;50.664;10.098;2022-07-29T00:54:33;4.88;;;1.52;;
43807;SDS011;29438;50.664;10.098;2022-07-29T00:57:00;2.55;;;1.10;;
43807;SDS011;29438;50.664;10.098;2022-07-29T00:59:26;3.35;;;1.48;;
43807;SDS011;29438;50.664;10.098;2022-07-29T01:01:52;4.88;;;1.10;;
43807;SDS011;29438;50.664;10.098;2022-07-29T01:04:19;4.22;;;1.50;;
43807;SDS011;29438;50.664;10.098;2022-07-29T01:06:46;2.90;;;1.30;;
43807;SDS011;29438;50.664;10.098;2022-07-29T01:09:13;5.15;;;1.58;;
43807;SDS011;29438;50.664;10.098;2022-07-29T01:11:39;2.90;;;1.40;;
43807;SDS011;29438;50.664;10.098;2022-07-29T01:14:06;4.30;;;1.52;;
43807;SDS011;29438;50.664;10.098;2022-07-29T01:16:35;6.47;;;1.50;;
43807;SDS011;29438;50.664;10.098;2022-07-29T01:19:22;4.85;;;1.58;;
43807;SDS011;29438;50.664;10.098;2022-07-29T01:25:02;3.05;;;1.02;;
43807;SDS011;29438;50.664;10.098;2022-07-29T01:27:58;3.30;;;1.30;;
43807;SDS011;29438;50.664;10.098;2022-07-29T01:30:48;2.42;;;1.02;;
43807;SDS011;29438;50.664;10.098;2022-07-29T01:33:17;5.35;;;1.40;;
43807;SDS011;29438;50.664;10.098;2022-07-29T01:36:04;4.10;;;1.10;;
43807;SDS011;29438;50.664;10.098;2022-07-29T01:38:35;3.72;;;1.10;;
43807;SDS011;29438;50.664;10.098;2022-07-29T01:41:07;3.90;;;1.20;;
43807;SDS011;29438;50.664;10.098;2022-07-29T01:43:44;2.58;;;1.10;;
43807;SDS011;29438;50.664;10.098;2022-07-29T01:46:29;3.20;;;1.20;;
43807;SDS011;29438;50.664;10.098;2022-07-29T01:48:59;2.90;;;1.05;;
43807;SDS011;29438;50.664;10.098;2022-07-29T01:54:14;3.13;;;1.38;;
43807;SDS011;29438;50.664;10.098;2022-07-29T01:56:50;4.43;;;1.10;;
43807;SDS011;29438;50.664;10.098;2022-07-29T01:59:18;3.00;;;1.20;;
43807;SDS011;29438;50.664;10.098;2022-07-29T02:01:45;3.47;;;1.10;;
43807;SDS011;29438;50.664;10.098;2022-07-29T02:04:13;3.22;;;1.13;;
43807;SDS011;29438;50.664;10.098;2022-07-29T02:06:41;2.97;;;1.08;;
43807;SDS011;29438;50.664;10.098;2022-07-29T02:09:09;2.75;;;1.27;;
43807;SDS011;29438;50.664;10.098;2022-07-29T02:11:38;3.03;;;1.40;;
43807;SDS011;29438;50.664;10.098;2022-07-29T02:14:05;3.80;;;1.40;;
43807;SDS011;29438;50.664;10.098;2022-07-29T02:16:33;2.55;;;1.20;;
43807;SDS011;29438;50.664;10.098;2022-07-29T02:19:01;3.15;;;1.23;;
43807;SDS011;29438;50.664;10.098;2022-07-29T02:21:29;4.15;;;1.40;;
43807;SDS011;29438;50.664;10.098;2022-07-29T02:23:56;2.50;;;1.20;;
43807;SDS011;29438;50.664;10.098;2022-07-29T02:26:25;3.20;;;1.27;;
43807;SDS011;29438;50.664;10.098;2022-07-29T02:28:54;5.20;;;1.30;;
43807;SDS011;29438;50.664;10.098;2022-07-29T02:31:22;3.22;;;1.23;;
43807;SDS011;29438;50.664;10.098;2022-07-29T02:33:51;3.35;;;1.30;;
43807;SDS011;29438;50.664;10.098;2022-07-29T02:36:18;3.33;;;1.10;;
43807;SDS011;29438;50.664;10.098;2022-07-29T02:38:47;4.18;;;1.27;;
43807;SDS011;29438;50.664;10.098;2022-07-29T02:41:23;6.13;;;1.33;;
43807;SDS011;29438;50.664;10.098;2022-07-29T02:43:53;2.63;;;1.27;;
43807;SDS011;29438;50.664;10.098;2022-07-29T02:46:25;3.45;;;1.00;;
43807;SDS011;29438;50.664;10.098;2022-07-29T02:49:15;2.75;;;1.10;;
43807;SDS011;29438;50.664;10.098;2022-07-29T02:51:54;2.97;;;1.10;;
43807;SDS011;29438;50.664;10.098;2022-07-29T02:55:10;2.13;;;1.08;;
43807;SDS011;29438;50.664;10.098;2022-07-29T03:00:12;3.00;;;1.20;;
43807;SDS011;29438;50.664;10.098;2022-07-29T03:02:41;5.68;;;1.10;;
43807;SDS011;29438;50.664;10.098;2022-07-29T03:05:10;3.28;;;1.00;;
43807;SDS011;29438;50.664;10.098;2022-07-29T03:07:40;2.95;;;1.10;;
43807;SDS011;29438;50.664;10.098;2022-07-29T03:10:08;2.75;;;1.00;;
43807;SDS011;29438;50.664;10.098;2022-07-29T03:12:35;2.33;;;1.13;;
43807;SDS011;29438;50.664;10.098;2022-07-29T03:15:01;2.78;;;1.35;;
43807;SDS011;29438;50.664;10.098;2022-07-29T03:17:27;4.78;;;1.38;;
43807;SDS011;29438;50.664;10.098;2022-07-29T03:19:53;3.30;;;1.27;;
43807;SDS011;29438;50.664;10.098;2022-07-29T03:22:19;3.00;;;1.20;;
43807;SDS011;29438;50.664;10.098;2022-07-29T03:24:45;3.08;;;1.20;;
43807;SDS011;29438;50.664;10.098;2022-07-29T03:27:11;5.03;;;1.20;;
43807;SDS011;29438;50.664;10.098;2022-07-29T03:29:36;2.58;;;1.20;;
43807;SDS011;29438;50.664;10.098;2022-07-29T03:32:03;6.32;;;1.20;;
43807;SDS011;29438;50.664;10.098;2022-07-29T03:34:30;2.72;;;1.10;;
43807;SDS011;29438;50.664;10.098;2022-07-29T03:36:55;4.30;;;1.13;;
43807;SDS011;29438;50.664;10.098;2022-07-29T03:39:21;4.15;;;1.20;;
43807;SDS011;29438;50.664;10.098;2022-07-29T03:41:52;6.47;;;1.38;;
43807;SDS011;29438;50.664;10.098;2022-07-29T03:44:19;4.13;;;1.20;;
43807;SDS011;29438;50.664;10.098;2022-07-29T03:46:46;3.42;;;1.13;;
43807;SDS011;29438;50.664;10.098;2022-07-29T03:49:15;3.20;;;1.00;;
43807;SDS011;29438;50.664;10.098;2022-07-29T03:51:43;3.88;;;1.30;;
43807;SDS011;29438;50.664;10.098;2022-07-29T03:54:08;1.98;;;0.95;;
43807;SDS011;29438;50.664;10.098;2022-07-29T03:56:35;3.60;;;1.05;;
43807;SDS011;29438;50.664;10.098;2022-07-29T03:59:04;3.90;;;1.13;;
43807;SDS011;29438;50.664;10.098;2022-07-29T04:01:32;2.97;;;1.40;;
43807;SDS011;29438;50.664;10.098;2022-07-29T04:03:58;4.65;;;1.33;;
43807;SDS011;29438;50.664;10.098;2022-07-29T04:06:25;2.25;;;0.98;;
43807;SDS011;29438;50.664;10.098;2022-07-29T04:08:51;3.65;;;1.27;;
43807;SDS011;29438;50.664;10.098;2022-07-29T04:11:16;2.70;;;1.08;;
43807;SDS011;29438;50.664;10.098;2022-07-29T04:13:42;3.05;;;1.02;;
43807;SDS011;29438;50.664;10.098;2022-07-29T04:16:07;2.10;;;1.20;;
43807;SDS011;29438;50.664;10.098;2022-07-29T04:18:33;4.15;;;1.30;;
43807;SDS011;29438;50.664;10.098;2022-07-29T04:20:58;2.33;;;1.02;;
43807;SDS011;29438;50.664;10.098;2022-07-29T04:23:25;2.92;;;1.20;;
43807;SDS011;29438;50.664;10.098;2022-07-29T04:25:51;3.72;;;1.30;;
43807;SDS011;29438;50.664;10.098;2022-07-29T04:28:17;4.80;;;1.30;;
43807;SDS011;29438;50.664;10.098;2022-07-29T04:30:42;3.70;;;1.40;;
43807;SDS011;29438;50.664;10.098;2022-07-29T04:33:08;5.57;;;1.35;;
43807;SDS011;29438;50.664;10.098;2022-07-29T04:35:34;3.60;;;1.38;;
43807;SDS011;29438;50.664;10.098;2022-07-29T04:38:03;2.95;;;1.58;;
43807;SDS011;29438;50.664;10.098;2022-07-29T04:40:30;2.78;;;1.25;;
43807;SDS011;29438;50.664;10.098;2022-07-29T04:42:57;3.42;;;1.50;;
43807;SDS011;29438;50.664;10.098;2022-07-29T04:45:23;2.40;;;1.20;;
43807;SDS011;29438;50.664;10.098;2022-07-29T04:47:49;3.13;;;1.65;;
43807;SDS011;29438;50.664;10.098;2022-07-29T04:50:15;2.88;;;1.45;;
43807;SDS011;29438;50.664;10.098;2022-07-29T04:52:40;4.22;;;1.48;;
43807;SDS011;29438;50.664;10.098;2022-07-29T04:55:06;4.38;;;1.40;;
43807;SDS011;29438;50.664;10.098;2022-07-29T04:57:32;3.80;;;1.40;;
43807;SDS011;29438;50.664;10.098;2022-07-29T04:59:57;3.10;;;1.08;;
43807;SDS011;29438;50.664;10.098;2022-07-29T05:02:23;2.60;;;0.95;;
43807;SDS011;29438;50.664;10.098;2022-07-29T05:04:48;4.00;;;1.15;;
43807;SDS011;29438;50.664;10.098;2022-07-29T05:07:14;3.30;;;1.13;;
43807;SDS011;29438;50.664;10.098;2022-07-29T05:09:39;3.80;;;1.00;;
43807;SDS011;29438;50.664;10.098;2022-07-29T05:12:05;2.53;;;1.17;;
43807;SDS011;29438;50.664;10.098;2022-07-29T05:14:31;4.53;;;1.10;;
43807;SDS011;29438;50.664;10.098;2022-07-29T05:16:57;2.50;;;1.00;;
43807;SDS011;29438;50.664;10.098;2022-07-29T05:19:23;3.13;;;0.90;;
43807;SDS011;29438;50.664;10.098;2022-07-29T05:21:48;3.30;;;1.00;;
43807;SDS011;29438;50.664;10.098;2022-07-29T05:24:14;2.33;;;1.00;;
43807;SDS011;29438;50.664;10.098;2022-07-29T05:26:40;4.47;;;1.02;;
43807;SDS011;29438;50.664;10.098;2022-07-29T05:29:05;2.38;;;1.05;;
43807;SDS011;29438;50.664;10.098;2022-07-29T05:31:31;1.85;;;0.90;;
43807;SDS011;29438;50.664;10.098;2022-07-29T05:33:56;2.40;;;0.93;;
43807;SDS011;29438;50.664;10.098;2022-07-29T05:36:22;5.25;;;1.17;;
43807;SDS011;29438;50.664;10.098;2022-07-29T05:38:47;4.28;;;1.10;;
43807;SDS011;29438;50.664;10.098;2022-07-29T05:41:13;3.55;;;1.00;;
43807;SDS011;29438;50.664;10.098;2022-07-29T05:43:38;2.67;;;1.08;;
43807;SDS011;29438;50.664;10.098;2022-07-29T05:46:04;2.42;;;1.05;;
43807;SDS011;29438;50.664;10.098;2022-07-29T05:48:29;4.65;;;1.30;;
43807;SDS011;29438;50.664;10.098;2022-07-29T05:50:55;3.80;;;1.20;;
43807;SDS011;29438;50.664;10.098;2022-07-29T05:53:20;3.70;;;1.60;;
43807;SDS011;29438;50.664;10.098;2022-07-29T05:55:49;3.55;;;1.30;;
43807;SDS011;29438;50.664;10.098;2022-07-29T05:58:15;4.72;;;1.30;;
43807;SDS011;29438;50.664;10.098;2022-07-29T06:00:41;3.33;;;1.10;;
43807;SDS011;29438;50.664;10.098;2022-07-29T06:03:07;5.53;;;1.52;;
43807;SDS011;29438;50.664;10.098;2022-07-29T06:05:32;3.13;;;1.00;;
43807;SDS011;29438;50.664;10.098;2022-07-29T06:07:58;5.97;;;1.20;;
43807;SDS011;29438;50.664;10.098;2022-07-29T06:10:23;3.38;;;1.00;;
43807;SDS011;29438;50.664;10.098;2022-07-29T06:12:49;2.65;;;1.00;;
43807;SDS011;29438;50.664;10.098;2022-07-29T06:15:15;4.38;;;1.00;;
43807;SDS011;29438;50.664;10.098;2022-07-29T06:17:40;3.58;;;1.15;;
43807;SDS011;29438;50.664;10.098;2022-07-29T06:20:06;3.50;;;1.40;;
43807;SDS011;29438;50.664;10.098;2022-07-29T06:22:32;2.95;;;1.10;;
43807;SDS011;29438;50.664;10.098;2022-07-29T06:24:57;2.63;;;0.90;;
43807;SDS011;29438;50.664;10.098;2022-07-29T06:27:23;2.33;;;0.90;;
43807;SDS011;29438;50.664;10.098;2022-07-29T06:29:48;2.00;;;0.95;;
43807;SDS011;29438;50.664;10.098;2022-07-29T06:32:14;3.08;;;1.00;;
43807;SDS011;29438;50.664;10.098;2022-07-29T06:34:39;2.88;;;1.23;;
43807;SDS011;29438;50.664;10.098;2022-07-29T06:37:08;2.95;;;1.15;;
43807;SDS011;29438;50.664;10.098;2022-07-29T06:39:34;4.75;;;1.20;;
43807;SDS011;29438;50.664;10.098;2022-07-29T06:42:01;3.65;;;1.27;;
43807;SDS011;29438;50.664;10.098;2022-07-29T06:44:27;3.35;;;1.20;;
43807;SDS011;29438;50.664;10.098;2022-07-29T06:46:53;4.22;;;1.50;;
43807;SDS011;29438;50.664;10.098;2022-07-29T06:49:19;5.90;;;1.42;;
43807;SDS011;29438;50.664;10.098;2022-07-29T06:51:45;2.95;;;1.20;;
43807;SDS011;29438;50.664;10.098;2022-07-29T06:54:10;2.20;;;1.05;;
43807;SDS011;29438;50.664;10.098;2022-07-29T06:56:36;4.85;;;1.38;;
43807;SDS011;29438;50.664;10.098;2022-07-29T06:59:02;3.17;;;1.13;;
43807;SDS011;29438;50.664;10.098;2022-07-29T07:01:28;4.47;;;1.02;;
43807;SDS011;29438;50.664;10.098;2022-07-29T07:03:54;2.85;;;0.90;;
43807;SDS011;29438;50.664;10.098;2022-07-29T07:06:19;2.58;;;1.10;;
43807;SDS011;29438;50.664;10.098;2022-07-29T07:08:45;4.75;;;1.20;;
43807;SDS011;29438;50.664;10.098;2022-07-29T07:11:10;3.05;;;1.10;;
43807;SDS011;29438;50.664;10.098;2022-07-29T07:13:36;4.63;;;1.20;;
43807;SDS011;29438;50.664;10.098;2022-07-29T07:16:01;4.07;;;1.20;;
43807;SDS011;29438;50.664;10.098;2022-07-29T07:18:27;5.05;;;1.27;;
43807;SDS011;29438;50.664;10.098;2022-07-29T07:20:53;4.97;;;1.08;;
43807;SDS011;29438;50.664;10.098;2022-07-29T07:23:19;3.97;;;1.23;;
43807;SDS011;29438;50.664;10.098;2022-07-29T07:25:44;3.10;;;1.00;;
43807;SDS011;29438;50.664;10.098;2022-07-29T07:28:10;3.40;;;1.20;;
43807;SDS011;29438;50.664;10.098;2022-07-29T07:30:35;3.00;;;1.45;;
43807;SDS011;29438;50.664;10.098;2022-07-29T07:33:01;3.72;;;1.08;;
43807;SDS011;29438;50.664;10.098;2022-07-29T07:35:27;2.80;;;1.10;;
43807;SDS011;29438;50.664;10.098;2022-07-29T07:37:53;5.22;;;1.20;;
43807;SDS011;29438;50.664;10.098;2022-07-29T07:40:20;2.95;;;1.48;;
43807;SDS011;29438;50.664;10.098;2022-07-29T07:42:46;4.55;;;1.23;;
43807;SDS011;29438;50.664;10.098;2022-07-29T07:45:11;3.45;;;1.52;;
43807;SDS011;29438;50.664;10.098;2022-07-29T07:47:37;4.85;;;1.50;;
43807;SDS011;29438;50.664;10.098;2022-07-29T07:50:07;4.82;;;2.50;;
43807;SDS011;29438;50.664;10.098;2022-07-29T07:52:34;4.53;;;1.65;;
43807;SDS011;29438;50.664;10.098;2022-07-29T07:55:10;5.63;;;1.70;;
43807;SDS011;29438;50.664;10.098;2022-07-29T07:57:35;5.28;;;1.75;;
43807;SDS011;29438;50.664;10.098;2022-07-29T08:00:01;5.15;;;1.70;;
43807;SDS011;29438;50.664;10.098;2022-07-29T08:02:27;4.28;;;1.58;;
43807;SDS011;29438;50.664;10.098;2022-07-29T08:04:53;5.63;;;1.50;;
43807;SDS011;29438;50.664;10.098;2022-07-29T08:07:18;3.35;;;1.40;;
43807;SDS011;29438;50.664;10.098;2022-07-29T08:09:43;4.65;;;1.67;;
43807;SDS011;29438;50.664;10.098;2022-07-29T08:12:30;3.28;;;1.30;;
43807;SDS011;29438;50.664;10.098;2022-07-29T08:15:33;3.72;;;1.50;;
43807;SDS011;29438;50.664;10.098;2022-07-29T08:17:59;3.55;;;1.23;;
43807;SDS011;29438;50.664;10.098;2022-07-29T08:20:25;4.57;;;1.08;;
43807;SDS011;29438;50.664;10.098;2022-07-29T08:22:51;4.72;;;1.67;;
43807;SDS011;29438;50.664;10.098;2022-07-29T08:25:17;2.47;;;0.98;;
43807;SDS011;29438;50.664;10.098;2022-07-29T08:27:45;5.28;;;1.30;;
43807;SDS011;29438;50.664;10.098;2022-07-29T08:30:13;5.18;;;1.40;;
43807;SDS011;29438;50.664;10.098;2022-07-29T08:32:39;3.10;;;1.13;;
43807;SDS011;29438;50.664;10.098;2022-07-29T08:35:04;4.03;;;1.17;;
43807;SDS011;29438;50.664;10.098;2022-07-29T08:37:30;4.45;;;1.40;;
43807;SDS011;29438;50.664;10.098;2022-07-29T08:39:56;3.00;;;1.23;;
43807;SDS011;29438;50.664;10.098;2022-07-29T08:42:21;4.45;;;1.20;;
43807;SDS011;29438;50.664;10.098;2022-07-29T08:44:47;4.18;;;1.30;;
43807;SDS011;29438;50.664;10.098;2022-07-29T08:47:13;7.20;;;1.60;;
43807;SDS011;29438;50.664;10.098;2022-07-29T08:49:39;4.53;;;1.70;;
43807;SDS011;29438;50.664;10.098;2022-07-29T08:52:05;4.25;;;1.23;;
43807;SDS011;29438;50.664;10.098;2022-07-29T08:54:31;5.05;;;1.30;;
43807;SDS011;29438;50.664;10.098;2022-07-29T08:56:57;4.70;;;1.38;;
43807;SDS011;29438;50.664;10.098;2022-07-29T08:59:24;5.70;;;1.30;;
43807;SDS011;29438;50.664;10.098;2022-07-29T09:01:52;5.65;;;1.40;;
43807;SDS011;29438;50.664;10.098;2022-07-29T09:04:19;8.48;;;1.67;;
43807;SDS011;29438;50.664;10.098;2022-07-29T09:06:47;4.05;;;1.70;;
43807;SDS011;29438;50.664;10.098;2022-07-29T09:09:15;5.72;;;1.95;;
43807;SDS011;29438;50.664;10.098;2022-07-29T09:11:42;9.90;;;2.47;;
43807;SDS011;29438;50.664;10.098;2022-07-29T09:14:08;5.70;;;2.38;;
43807;SDS011;29438;50.664;10.098;2022-07-29T09:16:45;7.32;;;2.35;;
43807;SDS011;29438;50.664;10.098;2022-07-29T09:19:29;5.53;;;2.63;;
43807;SDS011;29438;50.664;10.098;2022-07-29T09:21:57;5.75;;;2.75;;
43807;SDS011;29438;50.664;10.098;2022-07-29T09:24:25;5.55;;;2.65;;
43807;SDS011;29438;50.664;10.098;2022-07-29T09:27:00;5.90;;;2.58;;
43807;SDS011;29438;50.664;10.098;2022-07-29T09:29:26;7.05;;;2.67;;
43807;SDS011;29438;50.664;10.098;2022-07-29T09:31:53;3.92;;;2.45;;
43807;SDS011;29438;50.664;10.098;2022-07-29T09:34:26;6.85;;;2.55;;
43807;SDS011;29438;50.664;10.098;2022-07-29T09:36:53;6.00;;;2.53;;
43807;SDS011;29438;50.664;10.098;2022-07-29T09:39:26;5.75;;;2.95;;
43807;SDS011;29438;50.664;10.098;2022-07-29T09:44:21;6.10;;;2.45;;
43807;SDS011;29438;50.664;10.098;2022-07-29T09:49:19;4.88;;;2.50;;
43807;SDS011;29438;50.664;10.098;2022-07-29T09:51:45;7.35;;;2.50;;
43807;SDS011;29438;50.664;10.098;2022-07-29T09:54:24;5.82;;;2.60;;
43807;SDS011;29438;50.664;10.098;2022-07-29T09:56:51;5.80;;;2.20;;
43807;SDS011;29438;50.664;10.098;2022-07-29T09:59:17;8.77;;;2.70;;
43807;SDS011;29438;50.664;10.098;2022-07-29T10:01:45;4.93;;;2.42;;
43807;SDS011;29438;50.664;10.098;2022-07-29T10:04:10;5.18;;;2.15;;
43807;SDS011;29438;50.664;10.098;2022-07-29T10:06:42;6.45;;;2.30;;
43807;SDS011;29438;50.664;10.098;2022-07-29T10:09:21;5.05;;;2.50;;
43807;SDS011;29438;50.664;10.098;2022-07-29T10:12:02;5.00;;;2.70;;
43807;SDS011;29438;50.664;10.098;2022-07-29T10:14:30;6.10;;;2.38;;
43807;SDS011;29438;50.664;10.098;2022-07-29T10:16:58;6.85;;;2.63;;
43807;SDS011;29438;50.664;10.098;2022-07-29T10:19:26;6.30;;;3.00;;
43807;SDS011;29438;50.664;10.098;2022-07-29T10:21:57;5.32;;;2.90;;
43807;SDS011;29438;50.664;10.098;2022-07-29T10:24:24;5.68;;;3.15;;
43807;SDS011;29438;50.664;10.098;2022-07-29T10:26:51;5.78;;;2.83;;
43807;SDS011;29438;50.664;10.098;2022-07-29T10:29:19;6.97;;;2.60;;
43807;SDS011;29438;50.664;10.098;2022-07-29T10:31:50;4.13;;;2.38;;
43807;SDS011;29438;50.664;10.098;2022-07-29T10:34:31;5.93;;;2.45;;
43807;SDS011;29438;50.664;10.098;2022-07-29T10:37:07;5.80;;;2.70;;
43807;SDS011;29438;50.664;10.098;2022-07-29T10:40:00;4.10;;;2.38;;
43807;SDS011;29438;50.664;10.098;2022-07-29T10:42:59;3.83;;;2.20;;
43807;SDS011;29438;50.664;10.098;2022-07-29T10:45:54;4.60;;;2.60;;
43807;SDS011;29438;50.664;10.098;2022-07-29T10:48:22;5.43;;;2.45;;
43807;SDS011;29438;50.664;10.098;2022-07-29T10:50:52;5.10;;;2.25;;
43807;SDS011;29438;50.664;10.098;2022-07-29T10:53:18;6.38;;;2.00;;
43807;SDS011;29438;50.664;10.098;2022-07-29T10:55:44;4.75;;;2.40;;
43807;SDS011;29438;50.664;10.098;2022-07-29T10:58:18;5.95;;;2.60;;
43807;SDS011;29438;50.664;10.098;2022-07-29T11:06:13;5.88;;;2.40;;
43807;SDS011;29438;50.664;10.098;2022-07-29T11:08:39;6.32;;;2.60;;
43807;SDS011;29438;50.664;10.098;2022-07-29T11:11:30;5.55;;;2.50;;
43807;SDS011;29438;50.664;10.098;2022-07-29T11:13:56;3.22;;;2.15;;
43807;SDS011;29438;50.664;10.098;2022-07-29T11:16:22;5.93;;;2.80;;
43807;SDS011;29438;50.664;10.098;2022-07-29T11:21:35;4.35;;;2.47;;
43807;SDS011;29438;50.664;10.098;2022-07-29T11:24:11;5.72;;;2.17;;
43807;SDS011;29438;50.664;10.098;2022-07-29T11:26:37;5.00;;;2.53;;
43807;SDS011;29438;50.664;10.098;2022-07-29T11:29:14;3.50;;;2.15;;
43807;SDS011;29438;50.664;10.098;2022-07-29T11:31:44;5.40;;;2.50;;
43807;SDS011;29438;50.664;10.098;2022-07-29T11:39:35;3.35;;;2.33;;
43807;SDS011;29438;50.664;10.098;2022-07-29T11:44:54;4.63;;;2.30;;
43807;SDS011;29438;50.664;10.098;2022-07-29T11:47:23;3.38;;;2.22;;
43807;SDS011;29438;50.664;10.098;2022-07-29T11:49:52;3.58;;;2.30;;
43807;SDS011;29438;50.664;10.098;2022-07-29T11:52:20;4.60;;;2.33;;
43807;SDS011;29438;50.664;10.098;2022-07-29T11:54:49;3.65;;;2.20;;
43807;SDS011;29438;50.664;10.098;2022-07-29T11:57:15;3.80;;;2.08;;
43807;SDS011;29438;50.664;10.098;2022-07-29T11:59:44;4.93;;;2.30;;
43807;SDS011;29438;50.664;10.098;2022-07-29T12:02:11;3.97;;;2.28;;
43807;SDS011;29438;50.664;10.098;2022-07-29T12:04:50;4.13;;;2.28;;
43807;SDS011;29438;50.664;10.098;2022-07-29T12:07:17;4.10;;;1.98;;
43807;SDS011;29438;50.664;10.098;2022-07-29T12:09:50;3.22;;;2.28;;
43807;SDS011;29438;50.664;10.098;2022-07-29T12:12:17;4.37;;;2.37;;
43807;SDS011;29438;50.664;10.098;2022-07-29T12:14:43;4.32;;;2.40;;
43807;SDS011;29438;50.664;10.098;2022-07-29T12:17:28;3.70;;;2.05;;
43807;SDS011;29438;50.664;10.098;2022-07-29T12:19:59;4.68;;;2.33;;
43807;SDS011;29438;50.664;10.098;2022-07-29T12:22:29;2.85;;;2.13;;
43807;SDS011;29438;50.664;10.098;2022-07-29T12:25:02;4.53;;;2.13;;
43807;SDS011;29438;50.664;10.098;2022-07-29T12:27:30;3.70;;;2.20;;
43807;SDS011;29438;50.664;10.098;2022-07-29T12:29:56;4.43;;;2.20;;
43807;SDS011;29438;50.664;10.098;2022-07-29T12:32:30;4.22;;;2.40;;
43807;SDS011;29438;50.664;10.098;2022-07-29T12:34:57;3.10;;;1.92;;
43807;SDS011;29438;50.664;10.098;2022-07-29T12:37:23;3.75;;;2.20;;
43807;SDS011;29438;50.664;10.098;2022-07-29T12:39:49;4.05;;;2.35;;
43807;SDS011;29438;50.664;10.098;2022-07-29T12:42:15;4.93;;;2.30;;
43807;SDS011;29438;50.664;10.098;2022-07-29T12:44:45;3.42;;;2.30;;
43807;SDS011;29438;50.664;10.098;2022-07-29T12:47:14;5.18;;;2.55;;
43807;SDS011;29438;50.664;10.098;2022-07-29T12:49:41;4.47;;;2.08;;
43807;SDS011;29438;50.664;10.098;2022-07-29T12:54:52;4.78;;;2.30;;
43807;SDS011;29438;50.664;10.098;2022-07-29T12:57:18;2.67;;;1.98;;
43807;SDS011;29438;50.664;10.098;2022-07-29T12:59:43;4.82;;;1.90;;
43807;SDS011;29438;50.664;10.098;2022-07-29T13:02:20;5.38;;;2.38;;
43807;SDS011;29438;50.664;10.098;2022-07-29T13:04:54;3.33;;;2.10;;
43807;SDS011;29438;50.664;10.098;2022-07-29T13:07:25;3.30;;;2.13;;
43807;SDS011;29438;50.664;10.098;2022-07-29T13:15:40;3.53;;;2.00;;
43807;SDS011;29438;50.664;10.098;2022-07-29T13:18:26;2.67;;;1.70;;
43807;SDS011;29438;50.664;10.098;2022-07-29T13:20:56;2.63;;;1.92;;
43807;SDS011;29438;50.664;10.098;2022-07-29T13:23:34;4.03;;;2.10;;
43807;SDS011;29438;50.664;10.098;2022-07-29T13:26:06;3.45;;;2.20;;
43807;SDS011;29438;50.664;10.098;2022-07-29T13:28:33;3.15;;;1.88;;
43807;SDS011;29438;50.664;10.098;2022-07-29T13:30:59;4.10;;;2.40;;
43807;SDS011;29438;50.664;10.098;2022-07-29T13:33:24;3.53;;;1.83;;
43807;SDS011;29438;50.664;10.098;2022-07-29T13:35:50;2.63;;;2.00;;
43807;SDS011;29438;50.664;10.098;2022-07-29T13:38:16;3.20;;;1.80;;
43807;SDS011;29438;50.664;10.098;2022-07-29T13:40:41;3.22;;;2.15;;
43807;SDS011;29438;50.664;10.098;2022-07-29T13:43:10;2.13;;;1.70;;
43807;SDS011;29438;50.664;10.098;2022-07-29T13:45:36;2.55;;;1.88;;
43807;SDS011;29438;50.664;10.098;2022-07-29T13:48:02;3.92;;;1.88;;
43807;SDS011;29438;50.664;10.098;2022-07-29T13:50:28;2.33;;;1.80;;
43807;SDS011;29438;50.664;10.098;2022-07-29T13:52:54;2.88;;;2.10;;
43807;SDS011;29438;50.664;10.098;2022-07-29T13:55:19;4.22;;;2.10;;
43807;SDS011;29438;50.664;10.098;2022-07-29T13:57:45;2.20;;;1.98;;
43807;SDS011;29438;50.664;10.098;2022-07-29T14:00:11;2.22;;;1.60;;
43807;SDS011;29438;50.664;10.098;2022-07-29T14:02:37;2.90;;;1.88;;
43807;SDS011;29438;50.664;10.098;2022-07-29T14:05:03;2.53;;;1.90;;
43807;SDS011;29438;50.664;10.098;2022-07-29T14:07:32;2.85;;;1.90;;
43807;SDS011;29438;50.664;10.098;2022-07-29T14:09:58;1.90;;;1.63;;
43807;SDS011;29438;50.664;10.098;2022-07-29T14:12:24;2.78;;;1.90;;
43807;SDS011;29438;50.664;10.098;2022-07-29T14:14:49;2.55;;;1.95;;
43807;SDS011;29438;50.664;10.098;2022-07-29T14:17:15;2.78;;;2.00;;
43807;SDS011;29438;50.664;10.098;2022-07-29T14:19:41;2.97;;;1.70;;
43807;SDS011;29438;50.664;10.098;2022-07-29T14:22:07;2.70;;;1.83;;
43807;SDS011;29438;50.664;10.098;2022-07-29T14:24:33;2.28;;;1.80;;
43807;SDS011;29438;50.664;10.098;2022-07-29T14:26:59;2.08;;;1.70;;
43807;SDS011;29438;50.664;10.098;2022-07-29T14:29:24;2.67;;;1.67;;
43807;SDS011;29438;50.664;10.098;2022-07-29T14:31:50;3.03;;;1.70;;
43807;SDS011;29438;50.664;10.098;2022-07-29T14:34:15;3.15;;;1.80;;
43807;SDS011;29438;50.664;10.098;2022-07-29T14:36:41;2.50;;;1.75;;
43807;SDS011;29438;50.664;10.098;2022-07-29T14:39:06;5.00;;;1.80;;
43807;SDS011;29438;50.664;10.098;2022-07-29T14:41:32;1.92;;;1.50;;
43807;SDS011;29438;50.664;10.098;2022-07-29T14:43:58;1.90;;;1.60;;
43807;SDS011;29438;50.664;10.098;2022-07-29T14:46:25;2.75;;;1.80;;
43807;SDS011;29438;50.664;10.098;2022-07-29T14:48:51;3.03;;;1.70;;
43807;SDS011;29438;50.664;10.098;2022-07-29T14:51:17;2.83;;;1.77;;
43807;SDS011;29438;50.664;10.098;2022-07-29T14:53:42;2.20;;;1.70;;
43807;SDS011;29438;50.664;10.098;2022-07-29T14:56:08;2.75;;;1.88;;
43807;SDS011;29438;50.664;10.098;2022-07-29T14:58:34;3.00;;;1.88;;
43807;SDS011;29438;50.664;10.098;2022-07-29T15:00:59;3.05;;;1.77;;
43807;SDS011;29438;50.664;10.098;2022-07-29T15:03:25;2.78;;;1.83;;
43807;SDS011;29438;50.664;10.098;2022-07-29T15:05:52;2.53;;;1.80;;
43807;SDS011;29438;50.664;10.098;2022-07-29T15:08:18;2.47;;;1.73;;
43807;SDS011;29438;50.664;10.098;2022-07-29T15:10:44;2.15;;;1.70;;
43807;SDS011;29438;50.664;10.098;2022-07-29T15:13:09;2.67;;;1.83;;
43807;SDS011;29438;50.664;10.098;2022-07-29T15:15:35;2.45;;;1.80;;
43807;SDS011;29438;50.664;10.098;2022-07-29T15:18:01;3.20;;;1.90;;